FQBR

Beira Airport

Beira, Mozambique
METAR FQBR 191100Z 08013KT 9999 NSC 36/13 Q1012
Observed Flight Rules
Sep-19 @ 11:00 UTC (29 minutes ago) Visual Flight Rules
Wind Visibility Clouds
80° at 13 knots 10,000+ meters
  • Clear skies
Temperatures Readings
Current 36°C / 97°F
Dewpoint 13°C / 55°F
Humidity 25%
Altimeter 29.88" Hg
Pressure 1012 hPa
Elevation 16
METAR FQBR 191100Z 08013KT 9999 NSC 36/13 Q1012
Observed Flight Rules
Sep-19 @ 11:00 UTC
(29 minutes ago)
VFR
Wind Visibility
80° at 13 knots 10,000+ meters
Clouds
  • Clear skies
Temperature Dewpoint
36°C / 97°F 13°C / 55°F
Humidity Altimeter Pressure
25% 29.88" Hg 1012 hPa